createdAt,value
2022-08-17T00:00:43.956Z,1009.14
2022-08-17T00:01:22.516Z,1009.15
2022-08-17T00:03:37.819Z,1009.15
2022-08-17T00:05:53.497Z,1009.13
2022-08-17T00:08:09.018Z,1009.19
2022-08-17T00:10:27.096Z,1009.20
2022-08-17T00:12:43.284Z,1009.19
2022-08-17T00:14:54.781Z,1009.24
2022-08-17T00:17:12.892Z,1009.18
2022-08-17T00:19:27.453Z,1009.20
2022-08-17T00:22:32.857Z,1009.18
2022-08-17T00:22:46.549Z,1009.24
2022-08-17T00:25:01.228Z,1009.19
2022-08-17T00:27:19.211Z,1009.20
2022-08-17T00:29:37.331Z,1009.23
2022-08-17T00:31:55.417Z,1009.22
2022-08-17T00:34:09.072Z,1009.21
2022-08-17T00:36:24.645Z,1009.24
2022-08-17T00:38:40.252Z,1009.27
2022-08-17T00:40:59.495Z,1009.29
2022-08-17T00:43:13.931Z,1009.29
2022-08-17T00:45:29.525Z,1009.32
2022-08-17T00:47:45.133Z,1009.29
2022-08-17T00:49:57.201Z,1009.28
2022-08-17T00:52:10.853Z,1009.27
2022-08-17T00:54:21.396Z,1009.29
2022-08-17T00:56:35.970Z,1009.29
2022-08-17T00:58:48.019Z,1009.32
2022-08-17T01:01:03.638Z,1009.31
2022-08-17T01:03:21.714Z,1009.38
2022-08-17T01:05:35.334Z,1009.42
2022-08-17T01:07:47.469Z,1009.39
2022-08-17T01:10:00.993Z,1009.36
2022-08-17T01:12:14.092Z,1009.37
2022-08-17T01:14:32.162Z,1009.37
2022-08-17T01:16:44.539Z,1009.31
2022-08-17T01:18:56.405Z,1009.30
2022-08-17T01:21:09.986Z,1009.31
2022-08-17T01:23:25.566Z,1009.32
2022-08-17T01:25:44.490Z,1009.28
2022-08-17T01:27:57.237Z,1009.33
2022-08-17T01:30:56.861Z,1009.35
2022-08-17T01:31:10.314Z,1009.33
2022-08-17T01:33:22.975Z,1009.36
2022-08-17T01:35:40.982Z,1009.36
2022-08-17T01:37:59.363Z,1009.37
2022-08-17T01:40:13.970Z,1009.39
2022-08-17T01:42:26.548Z,1009.39
2022-08-17T01:44:44.626Z,1009.37
2022-08-17T01:46:56.796Z,1009.39
2022-08-17T01:49:10.621Z,1009.37
2022-08-17T01:51:23.437Z,1009.38
2022-08-17T01:53:35.288Z,1009.37
2022-08-17T01:55:53.407Z,1009.36
2022-08-17T01:58:07.052Z,1009.37
2022-08-17T02:00:20.583Z,1009.42
2022-08-17T02:02:32.705Z,1009.40
2022-08-17T02:04:53.264Z,1009.36
2022-08-17T02:07:06.851Z,1009.41
2022-08-17T02:09:25.330Z,1009.37
2022-08-17T02:11:35.528Z,1009.38
2022-08-17T02:13:49.197Z,1009.38
2022-08-17T02:16:03.228Z,1009.33
2022-08-17T02:18:18.346Z,1009.39
2022-08-17T02:20:41.636Z,1009.41
2022-08-17T02:22:50.091Z,1009.47
2022-08-17T02:25:08.084Z,1009.44
2022-08-17T02:27:26.495Z,1009.44
2022-08-17T02:29:42.131Z,1009.44
2022-08-17T02:31:58.726Z,1009.42
2022-08-17T02:34:15.281Z,1009.45
2022-08-17T02:36:28.394Z,1009.42
2022-08-17T02:38:41.440Z,1009.50
2022-08-17T02:41:02.024Z,1009.51
2022-08-17T02:43:15.652Z,1009.46
2022-08-17T02:45:31.234Z,1009.45
2022-08-17T02:47:47.128Z,1009.41
2022-08-17T02:50:03.700Z,1009.37
2022-08-17T02:52:19.287Z,1009.40
2022-08-17T02:53:20.309Z,1009.38
2022-08-17T02:55:35.869Z,1009.35
2022-08-17T02:57:57.283Z,1009.31
2022-08-17T03:00:12.085Z,1009.28
2022-08-17T03:02:25.649Z,1009.26
2022-08-17T03:04:37.757Z,1009.26
2022-08-17T03:06:51.320Z,1009.27
2022-08-17T03:09:07.876Z,1009.25
2022-08-17T03:11:20.033Z,1009.29
2022-08-17T03:13:33.547Z,1009.30
2022-08-17T03:15:45.632Z,1009.28
2022-08-17T03:18:02.219Z,1009.26
2022-08-17T03:20:20.311Z,1009.19
2022-08-17T03:22:38.553Z,1009.23
2022-08-17T03:24:56.475Z,1009.23
2022-08-17T03:27:14.563Z,1009.26
2022-08-17T03:29:30.223Z,1009.24
2022-08-17T03:31:45.782Z,1009.24
2022-08-17T03:34:03.910Z,1009.25
2022-08-17T03:36:18.488Z,1009.25
2022-08-17T03:38:39.417Z,1009.26
2022-08-17T03:40:57.891Z,1009.28
2022-08-17T03:41:45.154Z,1009.26
2022-08-17T03:43:57.706Z,1009.25
2022-08-17T03:46:11.031Z,1009.27
2022-08-17T03:47:10.790Z,1009.25
2022-08-17T03:49:27.870Z,1009.27
2022-08-17T03:51:45.955Z,1009.22
2022-08-17T03:53:58.150Z,1009.25
2022-08-17T03:56:16.157Z,1009.33
2022-08-17T03:58:34.234Z,1009.32
2022-08-17T04:00:52.325Z,1009.29
2022-08-17T04:03:10.711Z,1009.34
2022-08-17T04:05:28.803Z,1009.32
2022-08-17T04:07:46.904Z,1009.31
2022-08-17T04:10:02.512Z,1009.33
2022-08-17T04:12:20.564Z,1009.32
2022-08-17T04:14:34.148Z,1009.34
2022-08-17T04:16:46.247Z,1009.34
2022-08-17T04:19:06.850Z,1009.31
2022-08-17T04:21:24.929Z,1009.34
2022-08-17T04:23:43.017Z,1009.34
2022-08-17T04:25:58.641Z,1009.37
2022-08-17T04:28:16.718Z,1009.42
2022-08-17T04:30:28.896Z,1009.45
2022-08-17T04:33:00.858Z,1009.37
2022-08-17T04:33:47.870Z,1009.42
2022-08-17T04:36:01.021Z,1009.42
2022-08-17T04:38:12.577Z,1009.43
2022-08-17T04:40:28.154Z,1009.46
2022-08-17T04:42:40.506Z,1009.43
2022-08-17T04:44:52.341Z,1009.46
2022-08-17T04:47:05.436Z,1009.52
2022-08-17T04:49:21.001Z,1009.53
2022-08-17T04:51:36.570Z,1009.54
2022-08-17T04:53:54.354Z,1009.56
2022-08-17T04:56:11.634Z,1009.62
2022-08-17T04:58:20.868Z,1009.65
2022-08-17T05:00:38.925Z,1009.69
2022-08-17T05:02:53.762Z,1009.72
2022-08-17T05:06:23.053Z,1009.79
2022-08-17T05:08:38.611Z,1009.82
2022-08-17T05:10:56.715Z,1009.79
2022-08-17T05:13:12.283Z,1009.78
2022-08-17T05:15:33.166Z,1009.80
2022-08-17T05:17:50.989Z,1009.87
2022-08-17T05:20:23.435Z,1009.89
2022-08-17T05:22:40.519Z,1009.85
2022-08-17T05:25:37.431Z,1009.83
2022-08-17T05:27:50.015Z,1009.86
2022-08-17T05:30:08.168Z,1009.83
2022-08-17T05:32:38.581Z,1009.81
2022-08-17T05:34:41.901Z,1009.83
2022-08-17T05:36:55.496Z,1009.78
2022-08-17T05:39:15.942Z,1009.78
2022-08-17T05:41:34.173Z,1009.88
2022-08-17T05:43:54.309Z,1009.90
2022-08-17T05:47:04.567Z,1009.92
2022-08-17T05:53:24.748Z,1009.90
2022-08-17T05:56:42.179Z,1009.87
2022-08-17T05:58:56.098Z,1009.85
2022-08-17T06:01:12.422Z,1009.91
2022-08-17T06:03:28.969Z,1009.92
2022-08-17T06:05:49.562Z,1009.91
2022-08-17T06:08:05.718Z,1009.86
2022-08-17T06:10:23.273Z,1009.94
2022-08-17T06:12:38.832Z,1009.95
2022-08-17T06:14:59.924Z,1009.99
2022-08-17T06:17:18.014Z,1009.98
2022-08-17T06:19:33.598Z,1010.02
2022-08-17T06:21:50.207Z,1010.02
2022-08-17T06:24:05.757Z,1010.02
2022-08-17T06:26:27.564Z,1009.98
2022-08-17T06:27:24.882Z,1009.96
2022-08-17T06:29:41.944Z,1009.97
2022-08-17T06:32:00.097Z,1009.99
2022-08-17T06:34:20.692Z,1010.01
2022-08-17T06:36:41.285Z,1009.97
2022-08-17T06:39:00.366Z,1009.95
2022-08-17T06:41:20.947Z,1009.97
2022-08-17T06:43:39.069Z,1009.94
2022-08-17T06:49:55.581Z,1009.95
2022-08-17T06:53:42.730Z,1009.97
2022-08-17T06:57:12.188Z,1010.04
2022-08-17T06:59:54.814Z,1010.06
2022-08-17T07:07:09.389Z,1010.09
2022-08-17T07:16:19.812Z,1010.10
2022-08-17T07:20:49.725Z,1010.06
2022-08-17T07:23:09.928Z,1010.06
2022-08-17T07:27:25.869Z,1010.06
2022-08-17T07:31:25.587Z,1010.05
2022-08-17T07:35:05.123Z,1010.06
2022-08-17T07:44:32.295Z,1010.15
2022-08-17T07:50:40.120Z,1010.12
2022-08-17T07:54:35.523Z,1010.09
2022-08-17T07:56:54.741Z,1010.05
2022-08-17T08:03:00.613Z,1010.11
2022-08-17T08:11:29.976Z,1010.11
2022-08-17T08:13:48.869Z,1010.09
2022-08-17T08:24:31.233Z,1010.20
2022-08-17T08:28:10.164Z,1010.20
2022-08-17T08:30:27.965Z,1010.20
2022-08-17T08:33:48.763Z,1010.14
2022-08-17T08:37:25.129Z,1010.12
2022-08-17T08:38:19.184Z,1010.15
2022-08-17T08:40:33.810Z,1010.12
2022-08-17T08:42:54.360Z,1010.07
2022-08-17T08:45:09.960Z,1010.09
2022-08-17T08:47:25.563Z,1010.13
2022-08-17T08:50:03.589Z,1010.14
2022-08-17T08:51:59.553Z,1010.10
2022-08-17T08:54:15.167Z,1010.14
2022-08-17T08:56:35.751Z,1010.16
2022-08-17T08:58:51.316Z,1010.10
2022-08-17T09:01:17.103Z,1010.13
2022-08-17T09:03:51.754Z,1010.11
2022-08-17T09:04:40.691Z,1010.15
2022-08-17T09:06:50.585Z,1010.14
2022-08-17T09:09:08.673Z,1010.10
2022-08-17T09:11:24.297Z,1010.12
2022-08-17T09:13:44.869Z,1010.09
2022-08-17T09:16:02.941Z,1010.08
2022-08-17T09:19:00.773Z,1010.00
2022-08-17T09:20:44.272Z,1010.02
2022-08-17T09:22:58.211Z,1009.95
2022-08-17T09:25:18.802Z,1009.95
2022-08-17T09:27:39.430Z,1010.02
2022-08-17T09:30:00.003Z,1010.04
2022-08-17T09:32:20.615Z,1010.01
2022-08-17T09:34:35.261Z,1009.94
2022-08-17T09:36:53.341Z,1009.97
2022-08-17T09:39:11.386Z,1010.03
2022-08-17T09:41:29.549Z,1010.04
2022-08-17T09:43:46.257Z,1009.96
2022-08-17T09:44:47.027Z,1010.00
2022-08-17T09:47:06.643Z,1009.96
2022-08-17T09:49:25.257Z,1009.97
2022-08-17T09:53:12.574Z,1009.95
2022-08-17T09:55:28.149Z,1009.97
2022-08-17T09:57:46.251Z,1009.98
2022-08-17T10:01:55.658Z,1009.94
2022-08-17T10:04:13.999Z,1009.91
2022-08-17T10:06:31.678Z,1009.94
2022-08-17T10:08:51.087Z,1009.86
2022-08-17T10:11:05.675Z,1009.90
2022-08-17T10:13:23.170Z,1009.84
2022-08-17T10:15:42.677Z,1009.85
2022-08-17T10:18:04.888Z,1009.87
2022-08-17T10:20:22.156Z,1009.85
2022-08-17T10:22:43.234Z,1009.83
2022-08-17T10:25:54.996Z,1009.88
2022-08-17T10:28:01.109Z,1009.86
2022-08-17T10:33:25.783Z,1009.88
2022-08-17T10:35:39.372Z,1009.86
2022-08-17T10:37:53.079Z,1009.91
2022-08-17T10:40:08.676Z,1009.93
2022-08-17T10:42:30.357Z,1009.87
2022-08-17T10:44:41.514Z,1009.81
2022-08-17T10:46:53.285Z,1009.85
2022-08-17T10:49:08.869Z,1009.88
2022-08-17T10:51:26.935Z,1009.83
2022-08-17T10:53:40.549Z,1009.78
2022-08-17T10:55:53.596Z,1009.76
2022-08-17T10:58:09.210Z,1009.75
2022-08-17T11:00:27.424Z,1009.73
2022-08-17T11:02:38.361Z,1009.70
2022-08-17T11:04:51.445Z,1009.71
2022-08-17T11:07:07.969Z,1009.72
2022-08-17T11:09:22.595Z,1009.72
2022-08-17T11:11:36.200Z,1009.68
2022-08-17T11:13:49.772Z,1009.68
2022-08-17T11:16:08.396Z,1009.61
2022-08-17T11:18:20.961Z,1009.64
2022-08-17T11:20:39.039Z,1009.59
2022-08-17T11:22:56.342Z,1009.63
2022-08-17T11:26:25.385Z,1009.53
2022-08-17T11:28:39.056Z,1009.57
2022-08-17T11:30:57.073Z,1009.55
2022-08-17T11:33:13.201Z,1009.53
2022-08-17T11:35:33.793Z,1009.49
2022-08-17T11:37:54.414Z,1009.50
2022-08-17T11:40:13.009Z,1009.51
2022-08-17T11:42:28.543Z,1009.49
2022-08-17T11:44:47.124Z,1009.54
2022-08-17T11:48:52.518Z,1009.50
2022-08-17T11:51:12.842Z,1009.47
2022-08-17T11:53:33.441Z,1009.41
2022-08-17T11:55:47.091Z,1009.35
2022-08-17T11:58:07.728Z,1009.34
2022-08-17T12:00:38.290Z,1009.42
2022-08-17T12:04:38.109Z,1009.42
2022-08-17T12:10:29.503Z,1009.46
2022-08-17T12:13:57.820Z,1009.47
2022-08-17T12:16:15.826Z,1009.50
2022-08-17T12:18:36.427Z,1009.48
2022-08-17T12:30:37.146Z,1009.49
2022-08-17T12:32:51.690Z,1009.51
2022-08-17T12:37:30.208Z,1009.49
2022-08-17T12:39:41.998Z,1009.46
2022-08-17T12:42:03.003Z,1009.42
2022-08-17T12:44:18.129Z,1009.40
2022-08-17T12:46:36.252Z,1009.34
2022-08-17T12:48:55.104Z,1009.30
2022-08-17T12:51:06.409Z,1009.27
2022-08-17T12:53:24.495Z,1009.21
2022-08-17T12:55:45.099Z,1009.16
2022-08-17T12:58:08.092Z,1009.17
2022-08-17T13:00:17.793Z,1009.15
2022-08-17T13:02:30.846Z,1009.10
2022-08-17T13:04:44.510Z,1009.10
2022-08-17T13:06:59.837Z,1009.14
2022-08-17T13:09:10.083Z,1009.18
2022-08-17T13:11:23.727Z,1009.15
2022-08-17T13:13:39.298Z,1009.19
2022-08-17T13:15:53.159Z,1009.12
2022-08-17T13:18:06.423Z,1009.15
2022-08-17T13:20:20.057Z,1009.14
2022-08-17T13:22:32.144Z,1009.11
2022-08-17T13:24:45.218Z,1009.11
2022-08-17T13:26:57.334Z,1009.10
2022-08-17T13:29:10.887Z,1009.09
2022-08-17T13:31:25.461Z,1009.01
2022-08-17T13:33:44.944Z,1009.03
2022-08-17T13:35:53.155Z,1009.03
2022-08-17T13:38:05.443Z,1009.03
2022-08-17T13:40:18.939Z,1009.05
2022-08-17T13:42:34.405Z,1008.97
2022-08-17T13:44:50.001Z,1009.01
2022-08-17T13:47:06.082Z,1009.02
2022-08-17T13:49:15.702Z,1008.97
2022-08-17T13:52:48.835Z,1008.94
2022-08-17T13:55:00.779Z,1008.91
2022-08-17T13:57:12.843Z,1008.92
2022-08-17T13:59:53.298Z,1008.94
2022-08-17T14:00:27.455Z,1008.97
2022-08-17T14:02:42.014Z,1008.96
2022-08-17T14:04:57.608Z,1008.95
2022-08-17T14:07:09.716Z,1008.89
2022-08-17T14:09:23.307Z,1008.87
2022-08-17T14:11:36.893Z,1008.92
2022-08-17T14:13:52.461Z,1008.90
2022-08-17T14:16:04.538Z,1008.95
2022-08-17T14:18:18.117Z,1008.92
2022-08-17T14:19:19.087Z,1008.92
2022-08-17T14:21:30.217Z,1008.92
2022-08-17T14:23:54.285Z,1008.85
2022-08-17T14:26:01.388Z,1008.88
2022-08-17T14:28:14.997Z,1008.86
2022-08-17T14:30:30.562Z,1008.89
2022-08-17T14:32:42.630Z,1008.87
2022-08-17T14:34:58.208Z,1008.81
2022-08-17T14:37:11.838Z,1008.79
2022-08-17T14:39:25.492Z,1008.78
2022-08-17T14:41:41.000Z,1008.76
2022-08-17T14:43:53.118Z,1008.78
2022-08-17T14:46:07.722Z,1008.83
2022-08-17T14:48:21.298Z,1008.74
2022-08-17T14:50:35.825Z,1008.82
2022-08-17T14:52:47.952Z,1008.80
2022-08-17T14:55:00.034Z,1008.83
2022-08-17T14:57:24.848Z,1008.77
2022-08-17T14:58:13.093Z,1008.70
2022-08-17T15:00:25.678Z,1008.74
2022-08-17T15:02:37.761Z,1008.76
2022-08-17T15:04:51.344Z,1008.73
2022-08-17T15:07:04.964Z,1008.75
2022-08-17T15:09:18.048Z,1008.72
2022-08-17T15:11:33.577Z,1008.74
2022-08-17T15:13:52.206Z,1008.68
2022-08-17T15:16:00.234Z,1008.69
2022-08-17T15:32:40.376Z,1008.65
2022-08-17T15:34:52.370Z,1008.62
2022-08-17T15:37:07.892Z,1008.62
2022-08-17T15:39:21.564Z,1008.59
2022-08-17T15:41:58.067Z,1008.63
2022-08-17T15:44:00.398Z,1008.59
2022-08-17T15:46:12.318Z,1008.60
2022-08-17T15:48:27.919Z,1008.55
2022-08-17T15:50:43.486Z,1008.55
2022-08-17T15:52:57.663Z,1008.51
2022-08-17T15:55:12.678Z,1008.51
2022-08-17T15:57:28.243Z,1008.58
2022-08-17T15:59:41.344Z,1008.59
2022-08-17T16:03:01.742Z,1008.60
2022-08-17T16:03:13.446Z,1008.61
2022-08-17T16:04:04.392Z,1008.62
2022-08-17T16:07:26.724Z,1008.52
2022-08-17T16:09:42.468Z,1008.50
2022-08-17T16:11:57.121Z,1008.54
2022-08-17T16:14:32.533Z,1008.51
2022-08-17T16:16:29.818Z,1008.51
2022-08-17T16:18:45.292Z,1008.49
2022-08-17T16:21:00.883Z,1008.53
2022-08-17T16:23:20.114Z,1008.46
2022-08-17T16:25:51.992Z,1008.47
2022-08-17T16:27:50.491Z,1008.47
2022-08-17T16:30:05.833Z,1008.47
2022-08-17T16:32:31.685Z,1008.51
2022-08-17T16:34:37.444Z,1008.52
2022-08-17T16:36:55.093Z,1008.51
2022-08-17T16:39:11.673Z,1008.49
2022-08-17T16:41:25.223Z,1008.52
2022-08-17T16:43:43.308Z,1008.53
2022-08-17T16:45:58.938Z,1008.50
2022-08-17T16:48:11.977Z,1008.52
2022-08-17T16:50:27.602Z,1008.55
2022-08-17T16:52:43.139Z,1008.51
2022-08-17T16:54:57.727Z,1008.48
2022-08-17T16:57:11.290Z,1008.49
2022-08-17T16:59:31.071Z,1008.49
2022-08-17T17:00:25.871Z,1008.48
2022-08-17T17:02:40.478Z,1008.52
2022-08-17T17:04:54.074Z,1008.51
2022-08-17T17:07:07.157Z,1008.55
2022-08-17T17:09:20.740Z,1008.53
2022-08-17T17:11:36.349Z,1008.44
2022-08-17T17:13:51.968Z,1008.41
2022-08-17T17:16:05.503Z,1008.39
2022-08-17T17:18:17.621Z,1008.41
2022-08-17T17:20:33.175Z,1008.44
2022-08-17T17:22:51.255Z,1008.49
2022-08-17T17:25:06.847Z,1008.53
2022-08-17T17:27:22.718Z,1008.47
2022-08-17T17:29:48.071Z,1008.39
2022-08-17T17:30:39.221Z,1008.43
2022-08-17T17:32:52.931Z,1008.40
2022-08-17T17:35:08.573Z,1008.46
2022-08-17T17:37:24.125Z,1008.47
2022-08-17T17:39:39.762Z,1008.45
2022-08-17T17:41:55.318Z,1008.46
2022-08-17T17:44:08.962Z,1008.43
2022-08-17T17:46:28.085Z,1008.42
2022-08-17T17:48:35.626Z,1008.36
2022-08-17T17:50:50.180Z,1008.36
2022-08-17T17:53:03.781Z,1008.34
2022-08-17T17:55:21.869Z,1008.35
2022-08-17T17:57:34.963Z,1008.41
2022-08-17T17:59:53.027Z,1008.47
2022-08-17T18:02:05.160Z,1008.52
2022-08-17T18:04:20.522Z,1008.47
2022-08-17T18:06:34.281Z,1008.52
2022-08-17T18:08:52.448Z,1008.58
2022-08-17T18:11:07.977Z,1008.61
2022-08-17T18:13:26.661Z,1008.63
2022-08-17T18:15:39.131Z,1008.66
2022-08-17T18:17:54.713Z,1008.70
2022-08-17T18:20:10.327Z,1008.67
2022-08-17T18:22:26.903Z,1008.65
2022-08-17T18:24:38.976Z,1008.64
2022-08-17T18:26:52.587Z,1008.65
2022-08-17T18:29:08.750Z,1008.59
2022-08-17T18:31:23.785Z,1008.69
2022-08-17T18:33:41.849Z,1008.77
2022-08-17T18:36:01.574Z,1008.76
2022-08-17T18:38:19.965Z,1008.73
2022-08-17T18:40:33.093Z,1008.75
2022-08-17T18:42:51.229Z,1008.73
2022-08-17T18:45:06.815Z,1008.74
2022-08-17T18:47:22.337Z,1008.68
2022-08-17T18:49:37.925Z,1008.69
2022-08-17T18:51:51.662Z,1008.72
2022-08-17T18:54:05.212Z,1008.78
2022-08-17T18:56:18.788Z,1008.78
2022-08-17T18:58:32.364Z,1008.77
2022-08-17T19:00:46.545Z,1008.73
2022-08-17T19:02:59.569Z,1008.76
2022-08-17T19:05:15.188Z,1008.76
2022-08-17T19:07:27.254Z,1008.78
2022-08-17T19:09:40.829Z,1008.78
2022-08-17T19:12:26.461Z,1008.72
2022-08-17T19:14:34.644Z,1008.74
2022-08-17T19:16:48.237Z,1008.72
2022-08-17T19:19:06.298Z,1008.66
2022-08-17T19:21:22.469Z,1008.66
2022-08-17T19:23:38.795Z,1008.62
2022-08-17T19:26:17.491Z,1008.70
2022-08-17T19:27:09.446Z,1008.75
2022-08-17T19:29:24.874Z,1008.79
2022-08-17T19:31:39.650Z,1008.77
2022-08-17T19:33:52.088Z,1008.74
2022-08-17T19:36:07.654Z,1008.80
2022-08-17T19:38:21.261Z,1008.81
2022-08-17T19:40:52.301Z,1008.81
2022-08-17T19:42:48.896Z,1008.82
2022-08-17T19:45:01.983Z,1008.78
2022-08-17T19:47:19.549Z,1008.78
2022-08-17T19:49:34.449Z,1008.78
2022-08-17T19:50:27.159Z,1008.81
2022-08-17T19:52:39.746Z,1008.78
2022-08-17T19:54:53.348Z,1008.78
2022-08-17T19:57:06.910Z,1008.79
2022-08-17T19:59:18.979Z,1008.77
2022-08-17T20:01:34.543Z,1008.78
2022-08-17T20:06:00.930Z,1008.75
2022-08-17T20:06:34.270Z,1008.76
2022-08-17T20:08:45.353Z,1008.72
2022-08-17T20:10:58.486Z,1008.70
2022-08-17T20:13:10.523Z,1008.71
2022-08-17T20:15:22.616Z,1008.74
2022-08-17T20:17:34.686Z,1008.74
2022-08-17T20:19:46.779Z,1008.71
2022-08-17T20:22:52.507Z,1008.79
2022-08-17T20:23:39.385Z,1008.76
2022-08-17T20:25:51.461Z,1008.80
2022-08-17T20:28:06.317Z,1008.77
2022-08-17T20:30:17.139Z,1008.78
2022-08-17T20:32:30.709Z,1008.81
2022-08-17T20:34:44.292Z,1008.87
2022-08-17T20:36:57.991Z,1008.86
2022-08-17T20:39:11.009Z,1008.83
2022-08-17T20:41:29.058Z,1008.83
2022-08-17T20:43:47.148Z,1008.83
2022-08-17T20:45:59.235Z,1008.81
2022-08-17T20:48:37.028Z,1008.88
2022-08-17T20:50:30.478Z,1008.81
2022-08-17T20:52:47.050Z,1008.86
2022-08-17T20:55:00.147Z,1008.86
2022-08-17T20:57:14.398Z,1008.86
2022-08-17T20:59:26.795Z,1008.87
2022-08-17T21:01:39.079Z,1008.83
2022-08-17T21:03:52.325Z,1008.79
2022-08-17T21:06:04.559Z,1008.78
2022-08-17T21:07:05.577Z,1008.78
2022-08-17T21:09:16.629Z,1008.82
2022-08-17T21:11:56.882Z,1008.78
2022-08-17T21:13:42.281Z,1008.81
2022-08-17T21:15:54.365Z,1008.85
2022-08-17T21:18:06.476Z,1008.87
2022-08-17T21:20:20.029Z,1008.89
2022-08-17T21:22:33.111Z,1008.89
2022-08-17T21:24:46.750Z,1008.90
2022-08-17T21:27:00.634Z,1008.90
2022-08-17T21:29:30.387Z,1008.91
2022-08-17T21:30:13.349Z,1008.94
2022-08-17T21:32:25.296Z,1008.95
2022-08-17T21:34:36.540Z,1008.97
2022-08-17T21:36:48.592Z,1008.97
2022-08-17T21:39:00.657Z,1008.94
2022-08-17T21:41:14.256Z,1008.96
2022-08-17T21:43:26.350Z,1008.96
2022-08-17T21:45:39.009Z,1008.96
2022-08-17T21:47:52.295Z,1008.92
2022-08-17T21:50:04.117Z,1008.92
2022-08-17T21:52:18.520Z,1008.97
2022-08-17T21:54:29.791Z,1008.94
2022-08-17T21:56:41.904Z,1008.96
2022-08-17T21:58:55.501Z,1008.97
2022-08-17T22:01:08.593Z,1009.02
2022-08-17T22:03:22.124Z,1009.06
2022-08-17T22:05:35.200Z,1009.07
2022-08-17T22:07:48.310Z,1009.08
2022-08-17T22:10:00.364Z,1009.05
2022-08-17T22:12:12.476Z,1009.07
2022-08-17T22:14:24.535Z,1009.06
2022-08-17T22:16:36.605Z,1009.04
2022-08-17T22:18:50.226Z,1009.05
2022-08-17T22:21:02.296Z,1009.10
2022-08-17T22:23:15.364Z,1009.04
2022-08-17T22:25:29.043Z,1009.06
2022-08-17T22:27:42.008Z,1009.06
2022-08-17T22:29:57.413Z,1009.09
2022-08-17T22:32:06.164Z,1009.08
2022-08-17T22:34:23.399Z,1009.06
2022-08-17T22:36:30.347Z,1009.10
2022-08-17T22:38:43.666Z,1009.09
2022-08-17T22:40:56.506Z,1009.13
2022-08-17T22:43:10.520Z,1009.13
2022-08-17T22:45:21.654Z,1009.11
2022-08-17T22:47:35.251Z,1009.13
2022-08-17T22:49:53.226Z,1009.16
2022-08-17T22:52:00.959Z,1009.18
2022-08-17T22:54:12.996Z,1009.26
2022-08-17T22:56:25.090Z,1009.25
2022-08-17T22:58:37.175Z,1009.24
2022-08-17T23:00:51.070Z,1009.26
2022-08-17T23:03:02.515Z,1009.26
2022-08-17T23:05:14.472Z,1009.24
2022-08-17T23:07:28.032Z,1009.25
2022-08-17T23:09:41.131Z,1009.14
2022-08-17T23:11:54.198Z,1009.12
2022-08-17T23:14:07.306Z,1009.10
2022-08-17T23:16:20.369Z,1009.05
2022-08-17T23:18:35.958Z,1009.05
2022-08-17T23:20:49.020Z,1009.04
2022-08-17T23:23:02.650Z,1009.06
2022-08-17T23:25:15.737Z,1009.07
2022-08-17T23:27:27.835Z,1009.06
2022-08-17T23:29:41.875Z,1009.05
2022-08-17T23:31:53.464Z,1009.00
2022-08-17T23:34:09.125Z,1009.00
2022-08-17T23:36:21.177Z,1008.96
2022-08-17T23:38:33.247Z,1008.95
2022-08-17T23:40:46.844Z,1008.92
2022-08-17T23:43:00.447Z,1008.91
2022-08-17T23:45:13.535Z,1008.93
2022-08-17T23:47:25.643Z,1008.90
2022-08-17T23:49:38.680Z,1008.94
2022-08-17T23:51:52.271Z,1008.86
2022-08-17T23:54:07.882Z,1008.91
2022-08-17T23:56:17.954Z,1008.92
2022-08-17T23:58:30.056Z,1008.87
